Terminal Aerodrome Forecast
Issued by NWS

Home | Current Version | Previous Version | Text Only | Print | Product List | Glossary On
Versions: 1 2 3 4 5 6 7 8 9 10 11 12 13 14 15 16 17 18 19
130
FTUS44 KBMX 231131
TAFANB
TAF
KANB 231131Z 2312/2412 19007KT P6SM BKN090 OVC120
      TEMPO 2312/2316 BKN015
     FM231600 21015G22KT P6SM BKN040
     FM232100 22015G22KT 4SM SHRA BKN035 PROB30 2322/2324 2SM TSRA
      BKN025CB
     FM240100 22011KT P6SM BKN035
     FM240700 24003KT 6SM SHRA BKN007=

USA.gov is the U.S. government's official web portal to all federal, state and local government web resources and services.